createdAt,value
2018-03-24T00:00:09.682Z,6.51
2018-03-24T00:01:10.249Z,6.57
2018-03-24T00:02:10.816Z,6.57
2018-03-24T00:03:11.382Z,6.52
2018-03-24T00:04:11.950Z,6.52
2018-03-24T00:05:12.518Z,6.57
2018-03-24T00:06:13.086Z,6.60
2018-03-24T00:07:13.651Z,6.57
2018-03-24T00:08:14.217Z,6.52
2018-03-24T00:09:14.784Z,6.60
2018-03-24T00:10:15.352Z,6.54
2018-03-24T00:11:15.919Z,6.63
2018-03-24T00:12:16.499Z,6.60
2018-03-24T00:13:17.075Z,6.54
2018-03-24T00:14:17.641Z,6.54
2018-03-24T00:15:18.207Z,6.60
2018-03-24T08:54:50.650Z,8.38
2018-03-24T08:55:51.221Z,8.56
2018-03-24T08:56:51.811Z,8.69
2018-03-24T08:57:52.377Z,8.56
2018-03-24T08:58:52.947Z,8.58
2018-03-24T08:59:53.523Z,8.78
2018-03-24T09:00:54.104Z,8.79
2018-03-24T09:01:54.677Z,8.84
2018-03-24T09:02:55.248Z,8.91
2018-03-24T09:03:55.819Z,9.22
2018-03-24T09:04:56.388Z,9.25
2018-03-24T09:05:56.963Z,9.10
2018-03-24T09:06:57.544Z,9.16
2018-03-24T09:07:58.117Z,9.23
2018-03-24T09:08:58.687Z,9.25
2018-03-24T09:09:59.260Z,9.18
2018-03-24T09:10:59.832Z,9.10
2018-03-24T09:12:00.403Z,9.21
2018-03-24T09:13:00.974Z,9.34
2018-03-24T09:14:01.551Z,9.26
2018-03-24T09:15:02.172Z,9.40
2018-03-24T09:16:02.699Z,9.47
2018-03-24T09:17:03.270Z,9.43
2018-03-24T09:18:03.858Z,9.50
2018-03-24T09:19:04.469Z,9.47
2018-03-24T09:20:05.040Z,9.55
2018-03-24T09:21:05.649Z,9.55
2018-03-24T09:22:06.217Z,9.83
2018-03-24T09:23:06.789Z,9.84
2018-03-24T09:24:07.360Z,9.83
2018-03-24T09:25:07.961Z,9.79
2018-03-24T09:26:08.532Z,9.69
2018-03-24T09:27:09.102Z,9.72
2018-03-24T09:28:09.675Z,9.69
2018-03-24T09:29:10.247Z,9.79
2018-03-24T09:30:10.821Z,9.80
2018-03-24T09:31:11.394Z,9.77
2018-03-24T09:32:11.966Z,9.83
2018-03-24T09:33:12.538Z,9.79
2018-03-24T09:34:13.120Z,9.74
2018-03-24T09:35:13.695Z,9.95
2018-03-24T09:36:14.281Z,9.94
2018-03-24T09:37:14.858Z,10.15
2018-03-24T09:38:15.423Z,10.17
2018-03-24T09:39:15.996Z,10.35
2018-03-24T09:40:16.570Z,10.22
2018-03-24T09:41:17.157Z,10.19
2018-03-24T09:42:17.739Z,10.31
2018-03-24T09:43:18.313Z,10.15
2018-03-24T09:44:18.887Z,10.22
2018-03-24T09:45:19.462Z,10.28
2018-03-24T09:46:20.036Z,10.28
2018-03-24T09:47:20.608Z,10.26
2018-03-24T09:48:21.187Z,10.17
2018-03-24T09:49:21.755Z,10.23
2018-03-24T09:50:22.331Z,10.42
2018-03-24T09:51:22.910Z,10.60
2018-03-24T09:52:23.478Z,10.54
2018-03-24T09:53:24.053Z,10.64
2018-03-24T09:54:24.628Z,10.67
2018-03-24T09:55:25.201Z,10.74
2018-03-24T09:56:25.787Z,10.10
2018-03-24T09:57:26.360Z,10.22
2018-03-24T09:58:26.934Z,10.42
2018-03-24T09:59:27.511Z,10.38
2018-03-24T10:00:28.081Z,10.60
2018-03-24T10:01:28.657Z,10.57
2018-03-24T10:02:29.232Z,10.67
2018-03-24T10:03:29.804Z,10.89
2018-03-24T10:04:30.380Z,10.89
2018-03-24T10:05:30.953Z,10.42
2018-03-24T10:06:31.528Z,10.51
2018-03-24T10:07:32.104Z,10.59
2018-03-24T10:08:32.678Z,10.68
2018-03-24T10:09:33.254Z,10.84
2018-03-24T10:10:33.828Z,10.97
2018-03-24T10:11:34.401Z,10.75
2018-03-24T10:12:34.976Z,10.82
2018-03-24T10:13:35.550Z,11.05
2018-03-24T10:14:36.125Z,11.04
2018-03-24T10:15:36.700Z,11.14
2018-03-24T10:16:37.274Z,11.07
2018-03-24T10:17:37.853Z,10.86
2018-03-24T10:18:38.424Z,10.71
2018-03-24T10:19:38.998Z,10.74
2018-03-24T10:20:39.572Z,10.75
2018-03-24T10:21:40.147Z,10.84
2018-03-24T10:22:40.722Z,10.86
2018-03-24T10:23:41.308Z,10.96
2018-03-24T10:24:41.882Z,11.02
2018-03-24T10:25:42.456Z,11.11
2018-03-24T10:26:43.030Z,11.10
2018-03-24T10:27:43.605Z,10.97
2018-03-24T10:28:44.185Z,10.97
2018-03-24T10:29:44.756Z,11.00
2018-03-24T10:30:45.330Z,10.93
2018-03-24T10:31:45.906Z,10.79
2018-03-24T10:32:46.490Z,10.79
2018-03-24T10:33:47.066Z,10.81
2018-03-24T10:34:47.640Z,10.86
2018-03-24T10:35:48.214Z,11.00
2018-03-24T10:36:48.788Z,11.00
2018-03-24T10:37:49.361Z,11.05
2018-03-24T10:38:49.937Z,10.89
2018-03-24T10:39:50.513Z,10.89
2018-03-24T10:40:51.094Z,11.02
2018-03-24T10:41:51.669Z,10.90
2018-03-24T10:42:52.246Z,10.79
2018-03-24T10:43:52.822Z,10.71
2018-03-24T10:44:53.405Z,10.69
2018-03-24T10:45:53.979Z,10.64
2018-03-24T10:46:54.558Z,10.78
2018-03-24T10:47:55.140Z,10.92
2018-03-24T10:48:55.725Z,11.02
2018-03-24T10:49:56.301Z,11.33
2018-03-24T10:50:56.878Z,11.33
2018-03-24T10:51:57.460Z,11.25
2018-03-24T10:52:58.035Z,11.37
2018-03-24T10:53:58.610Z,11.45
2018-03-24T10:54:59.218Z,11.45
2018-03-24T10:55:59.770Z,11.57
2018-03-24T10:57:00.347Z,11.45
2018-03-24T10:58:00.942Z,11.72
2018-03-24T10:59:01.507Z,11.69
2018-03-24T11:00:02.094Z,11.62
2018-03-24T11:01:02.672Z,11.60
2018-03-24T11:02:03.245Z,11.75
2018-03-24T11:03:03.820Z,11.75
2018-03-24T11:04:04.399Z,11.40
2018-03-24T11:05:04.970Z,11.55
2018-03-24T11:06:05.546Z,12.04
2018-03-24T11:07:06.138Z,11.72
2018-03-24T11:08:06.707Z,12.03
2018-03-24T11:09:07.285Z,11.97
2018-03-24T11:10:07.868Z,12.04
2018-03-24T11:11:08.442Z,12.15
2018-03-24T11:12:09.020Z,12.25
2018-03-24T11:13:09.605Z,12.29
2018-03-24T11:14:10.182Z,12.36
2018-03-24T11:15:10.757Z,12.25
2018-03-24T11:16:11.332Z,12.36
2018-03-24T11:17:11.906Z,12.04
2018-03-24T11:18:12.482Z,12.13
2018-03-24T11:19:13.059Z,12.27
2018-03-24T11:20:13.632Z,12.39
2018-03-24T11:21:14.208Z,12.29
2018-03-24T11:22:14.783Z,12.55
2018-03-24T11:23:15.360Z,12.79
2018-03-24T11:24:15.937Z,12.76
2018-03-24T11:25:16.524Z,12.72
2018-03-24T11:26:17.114Z,12.86
2018-03-24T11:27:17.697Z,12.90
2018-03-24T11:28:18.273Z,12.78
2018-03-24T11:29:18.850Z,12.61
2018-03-24T11:30:19.436Z,12.72
2018-03-24T11:31:20.022Z,12.80
2018-03-24T11:32:20.608Z,13.05
2018-03-24T11:33:21.184Z,12.95
2018-03-24T11:34:21.759Z,12.91
2018-03-24T11:35:22.385Z,12.91
2018-03-24T11:36:22.961Z,12.93
2018-03-24T11:37:23.540Z,12.67
2018-03-24T11:38:24.123Z,12.85
2018-03-24T11:39:24.733Z,12.94
2018-03-24T11:40:25.310Z,13.03
2018-03-24T11:41:25.882Z,12.94
2018-03-24T11:42:26.459Z,12.83
2018-03-24T11:43:27.037Z,12.31
2018-03-24T11:44:27.612Z,12.20
2018-03-24T11:45:28.187Z,12.27
2018-03-24T11:46:28.766Z,12.45
2018-03-24T11:47:29.340Z,12.80
2018-03-24T11:48:29.929Z,12.97
2018-03-24T11:49:30.502Z,13.09
2018-03-24T11:50:31.080Z,12.93
2018-03-24T11:51:31.666Z,12.98
2018-03-24T11:52:32.246Z,12.61
2018-03-24T11:53:32.817Z,12.78
2018-03-24T11:54:33.395Z,12.57
2018-03-24T11:55:33.969Z,12.68
2018-03-24T11:56:34.545Z,12.79
2018-03-24T11:57:35.121Z,12.58
2018-03-24T11:58:35.703Z,12.32
2018-03-24T11:59:36.274Z,12.42
2018-03-24T12:00:36.850Z,12.50
2018-03-24T12:01:37.427Z,12.57
2018-03-24T12:02:38.006Z,12.58
2018-03-24T12:03:38.590Z,12.53
2018-03-24T12:04:39.169Z,12.47
2018-03-24T12:05:39.742Z,12.75
2018-03-24T12:06:40.319Z,12.86
2018-03-24T12:07:40.894Z,12.87
2018-03-24T12:08:41.470Z,12.85
2018-03-24T12:09:42.046Z,12.91
2018-03-24T12:10:42.624Z,12.91
2018-03-24T12:11:43.199Z,12.76
2018-03-24T12:12:43.776Z,12.80
2018-03-24T12:13:44.353Z,12.76
2018-03-24T12:14:44.937Z,12.80
2018-03-24T12:15:45.511Z,12.85
2018-03-24T12:16:46.089Z,13.01
2018-03-24T12:17:46.664Z,12.87
2018-03-24T12:18:47.241Z,12.86
2018-03-24T12:19:47.816Z,12.93
2018-03-24T12:20:48.393Z,12.91
2018-03-24T12:21:48.978Z,13.01
2018-03-24T12:22:49.557Z,12.94
2018-03-24T12:23:50.130Z,12.67
2018-03-24T12:24:50.708Z,12.78
2018-03-24T12:25:51.282Z,12.72
2018-03-24T12:26:51.858Z,12.57
2018-03-24T12:27:52.435Z,12.50
2018-03-24T12:28:53.011Z,12.20
2018-03-24T12:29:53.587Z,12.39
2018-03-24T12:30:54.164Z,12.55
2018-03-24T12:31:54.740Z,12.61
2018-03-24T12:32:55.320Z,12.62
2018-03-24T12:33:55.891Z,12.60
2018-03-24T12:34:56.466Z,12.61
2018-03-24T12:35:57.041Z,12.54
2018-03-24T12:36:57.622Z,12.60
2018-03-24T12:37:58.210Z,12.65
2018-03-24T12:38:58.782Z,12.68
2018-03-24T12:39:59.357Z,12.57
2018-03-24T12:40:59.932Z,12.78
2018-03-24T12:42:00.507Z,13.15
2018-03-24T12:43:01.094Z,13.25
2018-03-24T12:44:01.669Z,13.09
2018-03-24T12:45:02.257Z,13.11
2018-03-24T12:46:02.832Z,12.49
2018-03-24T12:47:03.408Z,12.76
2018-03-24T12:48:03.985Z,12.98
2018-03-24T12:49:04.561Z,12.94
2018-03-24T12:50:05.146Z,13.04
2018-03-24T12:51:05.734Z,12.37
2018-03-24T12:52:06.313Z,12.67
2018-03-24T12:53:06.888Z,12.87
2018-03-24T12:54:07.463Z,12.62
2018-03-24T12:55:08.046Z,12.31
2018-03-24T12:56:08.626Z,12.55
2018-03-24T12:57:09.203Z,12.47
2018-03-24T12:58:09.780Z,12.67
2018-03-24T12:59:10.356Z,12.90
2018-03-24T13:00:10.932Z,12.93
2018-03-24T13:01:11.509Z,12.94
2018-03-24T13:02:12.085Z,12.94
2018-03-24T13:03:12.662Z,13.15
2018-03-24T13:04:13.237Z,13.01
2018-03-24T13:05:13.813Z,12.80
2018-03-24T13:06:14.390Z,12.75
2018-03-24T13:07:14.971Z,12.80
2018-03-24T13:08:15.541Z,12.91
2018-03-24T13:09:16.116Z,12.95
2018-03-24T13:10:16.693Z,12.43
2018-03-24T13:11:17.270Z,12.42
2018-03-24T13:12:17.846Z,12.53
2018-03-24T13:13:18.422Z,12.45
2018-03-24T13:14:18.999Z,12.27
2018-03-24T13:15:19.574Z,12.46
2018-03-24T13:16:20.151Z,12.82
2018-03-24T13:17:20.726Z,12.85
2018-03-24T13:18:21.303Z,12.98
2018-03-24T13:19:21.881Z,12.79
2018-03-24T13:20:22.455Z,12.91
2018-03-24T13:21:23.081Z,12.94
2018-03-24T13:22:23.608Z,12.86
2018-03-24T13:23:24.185Z,12.97
2018-03-24T13:24:24.806Z,12.97
2018-03-24T13:25:25.335Z,12.86
2018-03-24T13:26:25.912Z,12.83
2018-03-24T13:27:26.488Z,12.80
2018-03-24T13:28:27.064Z,12.83
2018-03-24T13:29:27.639Z,12.80
2018-03-24T13:30:28.213Z,12.90
2018-03-24T13:31:28.789Z,12.79
2018-03-24T13:32:29.367Z,12.67
2018-03-24T13:33:29.941Z,12.46
2018-03-24T13:34:30.517Z,12.28
2018-03-24T13:35:31.092Z,12.67
2018-03-24T13:36:31.667Z,12.91
2018-03-24T13:37:32.246Z,12.70
2018-03-24T13:38:32.833Z,12.76
2018-03-24T13:39:33.410Z,12.49
2018-03-24T13:40:33.987Z,12.53
2018-03-24T13:41:34.563Z,12.94
2018-03-24T13:42:35.140Z,12.90
2018-03-24T13:43:35.718Z,12.46
2018-03-24T13:44:36.293Z,12.32
2018-03-24T13:45:36.869Z,12.53
2018-03-24T13:46:37.446Z,12.67
2018-03-24T13:47:38.023Z,12.42
2018-03-24T13:48:38.599Z,12.42
2018-03-24T13:49:39.174Z,12.24
2018-03-24T13:50:39.753Z,12.29
2018-03-24T13:51:40.328Z,12.54
2018-03-24T13:52:40.914Z,12.70
2018-03-24T13:53:41.502Z,12.68
2018-03-24T13:54:42.078Z,12.85
2018-03-24T13:55:42.656Z,13.00
2018-03-24T13:56:43.232Z,13.25
2018-03-24T13:57:43.807Z,12.70
2018-03-24T13:58:44.385Z,12.93
2018-03-24T13:59:44.972Z,12.98
2018-03-24T14:00:45.565Z,13.23
2018-03-24T14:01:46.134Z,13.15
2018-03-24T14:02:46.713Z,13.41
2018-03-24T14:03:47.289Z,13.47
2018-03-24T14:04:47.864Z,13.27
2018-03-24T14:05:48.439Z,13.54
2018-03-24T14:06:49.015Z,13.47
2018-03-24T14:07:49.593Z,13.38
2018-03-24T14:08:50.168Z,13.38
2018-03-24T14:09:50.755Z,13.67
2018-03-24T14:10:51.332Z,13.59
2018-03-24T14:11:51.907Z,13.49
2018-03-24T14:12:52.495Z,13.42
2018-03-24T14:13:53.071Z,13.39
2018-03-24T14:14:53.646Z,13.31
2018-03-24T14:15:54.224Z,13.46
2018-03-24T14:16:54.800Z,13.18
2018-03-24T14:17:55.376Z,13.23
2018-03-24T14:18:55.952Z,13.20
2018-03-24T14:19:56.542Z,12.94
2018-03-24T14:20:57.116Z,12.94
2018-03-24T14:21:57.693Z,13.09
2018-03-24T14:22:58.274Z,13.01
2018-03-24T14:23:58.844Z,13.04
2018-03-24T14:24:59.420Z,13.05
2018-03-24T14:25:59.996Z,12.82
2018-03-24T14:27:00.582Z,12.95
2018-03-24T14:28:01.158Z,13.00
2018-03-24T14:29:01.736Z,13.12
2018-03-24T14:30:02.312Z,12.82
2018-03-24T14:31:02.938Z,12.93
2018-03-24T14:32:03.567Z,12.91
2018-03-24T14:33:04.140Z,12.78
2018-03-24T14:34:04.716Z,12.85
2018-03-24T14:35:05.321Z,12.83
2018-03-24T14:36:05.896Z,12.76
2018-03-24T14:37:06.472Z,12.79
2018-03-24T14:38:07.049Z,12.72
2018-03-24T14:39:07.630Z,12.76
2018-03-24T14:40:08.202Z,12.85
2018-03-24T14:41:08.778Z,12.67
2018-03-24T14:42:09.356Z,12.70
2018-03-24T14:43:09.929Z,12.78
2018-03-24T14:44:10.508Z,12.75
2018-03-24T14:45:11.084Z,12.72
2018-03-24T14:46:11.660Z,12.75
2018-03-24T14:47:12.239Z,12.70
2018-03-24T14:48:12.815Z,12.68
2018-03-24T14:49:13.389Z,12.82
2018-03-24T14:50:13.966Z,12.68
2018-03-24T14:51:14.542Z,12.70
2018-03-24T14:52:15.119Z,12.50
2018-03-24T14:53:15.693Z,12.67
2018-03-24T14:54:16.270Z,12.70
2018-03-24T14:55:16.848Z,12.68
2018-03-24T14:56:17.434Z,12.54
2018-03-24T14:57:18.010Z,12.53
2018-03-24T14:58:18.584Z,12.57
2018-03-24T14:59:19.159Z,12.58
2018-03-24T15:00:19.735Z,12.55
2018-03-24T15:01:20.313Z,12.54
2018-03-24T15:02:20.888Z,12.46
2018-03-24T15:03:21.464Z,12.58
2018-03-24T15:04:22.040Z,12.46
2018-03-24T15:05:22.615Z,12.45
2018-03-24T15:06:23.200Z,12.39
2018-03-24T15:07:23.775Z,12.42
2018-03-24T15:08:24.350Z,12.47
2018-03-24T15:09:24.928Z,12.57
2018-03-24T15:10:25.502Z,12.46
2018-03-24T15:11:26.094Z,12.42
2018-03-24T15:12:26.696Z,12.40
2018-03-24T15:13:27.243Z,12.46
2018-03-24T15:14:27.821Z,12.42
2018-03-24T15:15:28.398Z,12.49
2018-03-24T15:16:28.974Z,12.49
2018-03-24T15:17:29.548Z,12.55
2018-03-24T15:18:30.127Z,12.50
2018-03-24T15:19:30.700Z,12.55
2018-03-24T15:20:31.277Z,12.47
2018-03-24T15:21:31.857Z,12.39
2018-03-24T15:22:32.455Z,12.43
2018-03-24T15:23:33.034Z,12.42
2018-03-24T15:24:33.610Z,12.43
2018-03-24T15:25:34.197Z,12.35
2018-03-24T15:26:34.773Z,12.40
2018-03-24T15:27:35.348Z,12.31
2018-03-24T15:28:35.926Z,12.29
2018-03-24T15:29:36.502Z,12.35
2018-03-24T15:30:37.076Z,12.29
2018-03-24T15:31:37.654Z,12.24
2018-03-24T15:32:38.230Z,12.28
2018-03-24T15:33:38.812Z,12.25
2018-03-24T15:34:39.389Z,12.22
2018-03-24T15:35:39.964Z,12.35
2018-03-24T15:36:40.545Z,12.28
2018-03-24T15:37:41.115Z,12.18
2018-03-24T15:38:41.702Z,12.24
2018-03-24T15:39:42.278Z,12.22
2018-03-24T15:40:42.866Z,12.27
2018-03-24T15:41:43.441Z,12.18
2018-03-24T15:42:44.020Z,12.00
2018-03-24T15:43:44.591Z,12.15
2018-03-24T15:44:45.166Z,12.18
2018-03-24T15:45:45.741Z,12.10
2018-03-24T15:46:46.328Z,12.03
2018-03-24T15:47:46.902Z,12.12
2018-03-24T15:48:47.476Z,12.02
2018-03-24T15:49:48.051Z,12.00
2018-03-24T15:50:48.647Z,12.10
2018-03-24T15:51:49.265Z,11.94
2018-03-24T15:52:49.806Z,11.95
2018-03-24T15:53:50.385Z,11.95
2018-03-24T15:54:50.957Z,12.09
2018-03-24T15:55:51.533Z,12.12
2018-03-24T15:56:52.106Z,11.95
2018-03-24T15:57:52.680Z,12.06
2018-03-24T15:58:53.256Z,12.04
2018-03-24T15:59:53.831Z,12.04
2018-03-24T16:00:54.405Z,12.04
2018-03-24T16:01:54.980Z,12.06
2018-03-24T16:02:55.553Z,11.99
2018-03-24T16:03:56.125Z,11.86
2018-03-24T16:04:56.700Z,11.77
2018-03-24T16:05:57.276Z,11.77
2018-03-24T16:06:57.855Z,11.95
2018-03-24T16:07:58.429Z,11.95
2018-03-24T16:08:59.005Z,11.91
2018-03-24T16:09:59.579Z,11.99
2018-03-24T16:11:00.155Z,11.94
2018-03-24T16:12:00.731Z,11.90
2018-03-24T16:13:01.315Z,11.87
2018-03-24T16:14:01.895Z,11.73
2018-03-24T16:15:02.464Z,11.77
2018-03-24T16:16:03.048Z,11.75
2018-03-24T16:17:03.625Z,11.73
2018-03-24T16:18:04.216Z,11.77
2018-03-24T16:19:04.806Z,11.86
2018-03-24T16:20:05.374Z,11.69
2018-03-24T16:21:05.950Z,11.70
2018-03-24T16:22:06.533Z,11.68
2018-03-24T16:23:07.108Z,11.69
2018-03-24T16:24:07.681Z,11.63
2018-03-24T16:25:08.255Z,11.63
2018-03-24T16:26:08.830Z,11.65
2018-03-24T16:27:09.406Z,11.66
2018-03-24T16:28:09.980Z,11.62
2018-03-24T16:29:10.574Z,11.57
2018-03-24T16:30:11.142Z,11.55
2018-03-24T16:31:11.716Z,11.62
2018-03-24T16:32:12.287Z,11.55
2018-03-24T16:33:12.869Z,11.60
2018-03-24T16:34:13.444Z,11.52
2018-03-24T16:35:14.022Z,11.57
2018-03-24T16:36:14.591Z,11.54
2018-03-24T16:37:15.164Z,11.54
2018-03-24T16:38:15.737Z,11.54
2018-03-24T16:39:16.375Z,11.54
2018-03-24T16:40:16.909Z,11.48
2018-03-24T16:41:17.485Z,11.54
2018-03-24T16:42:18.056Z,11.48
2018-03-24T16:43:18.628Z,11.48
2018-03-24T16:44:19.201Z,11.50
2018-03-24T16:45:19.774Z,11.29
2018-03-24T16:46:20.349Z,11.33
2018-03-24T16:47:20.922Z,11.29
2018-03-24T16:48:21.495Z,11.22
2018-03-24T16:49:22.067Z,11.25
2018-03-24T16:50:22.640Z,11.25
2018-03-24T16:51:23.243Z,11.23
2018-03-24T16:52:23.813Z,11.25
2018-03-24T16:53:24.388Z,11.14
2018-03-24T16:54:24.972Z,11.10
2018-03-24T16:55:25.548Z,11.25
2018-03-24T16:56:26.119Z,11.18
2018-03-24T16:57:26.693Z,11.18
2018-03-24T16:58:27.265Z,11.17
2018-03-24T16:59:27.836Z,11.17
2018-03-24T17:00:28.409Z,11.19
2018-03-24T17:01:28.981Z,11.17
2018-03-24T17:02:29.556Z,11.08
2018-03-24T17:03:30.138Z,11.22
2018-03-24T17:04:30.721Z,11.19
2018-03-24T17:05:31.298Z,11.12
2018-03-24T17:06:31.880Z,11.08
2018-03-24T17:07:32.453Z,11.07
2018-03-24T17:08:33.027Z,11.00
2018-03-24T17:09:33.598Z,11.02
2018-03-24T17:10:34.182Z,11.10
2018-03-24T17:11:34.755Z,11.15
2018-03-24T17:12:35.339Z,11.14
2018-03-24T17:13:35.912Z,11.05
2018-03-24T17:14:36.490Z,11.04
2018-03-24T17:15:37.059Z,11.12
2018-03-24T17:16:37.643Z,10.97
2018-03-24T17:17:38.275Z,11.02
2018-03-24T17:18:38.794Z,10.96
2018-03-24T17:19:39.374Z,10.99
2018-03-24T17:20:39.950Z,10.90
2018-03-24T17:21:40.521Z,10.86
2018-03-24T17:22:41.094Z,10.82
2018-03-24T17:23:41.675Z,10.86
2018-03-24T17:24:42.260Z,10.84
2018-03-24T17:25:42.840Z,10.87
2018-03-24T17:26:43.414Z,10.86
2018-03-24T17:27:43.986Z,10.79
2018-03-24T17:28:44.557Z,10.84
2018-03-24T17:29:45.129Z,10.82
2018-03-24T17:30:45.702Z,10.78
2018-03-24T17:31:46.274Z,10.76
2018-03-24T17:32:46.848Z,10.79
2018-03-24T17:33:47.420Z,10.76
2018-03-24T17:34:47.994Z,10.76
2018-03-24T17:35:48.577Z,10.78
2018-03-24T17:36:49.152Z,10.74
2018-03-24T17:37:49.729Z,10.69
2018-03-24T17:38:50.349Z,10.64
2018-03-24T17:39:50.885Z,10.64
2018-03-24T17:40:51.456Z,10.59
2018-03-24T17:41:52.028Z,10.56
2018-03-24T17:42:52.600Z,10.57
2018-03-24T17:43:53.172Z,10.46
2018-03-24T17:44:53.742Z,10.54
2018-03-24T17:45:54.317Z,10.51
2018-03-24T17:46:54.895Z,10.54
2018-03-24T17:47:55.477Z,10.56
2018-03-24T17:48:56.088Z,10.41
2018-03-24T17:49:56.661Z,10.56
2018-03-24T17:50:57.231Z,10.48
2018-03-24T17:51:57.804Z,10.49
2018-03-24T17:52:58.375Z,10.64
2018-03-24T17:53:58.948Z,10.59
2018-03-24T17:54:59.534Z,10.61
2018-03-24T17:56:00.109Z,10.61
2018-03-24T17:57:00.695Z,10.64
2018-03-24T17:58:01.271Z,10.60
2018-03-24T17:59:01.847Z,10.54
2018-03-24T18:00:02.424Z,10.53
2018-03-24T18:01:02.999Z,10.41
2018-03-24T18:02:03.569Z,10.42
2018-03-24T18:03:04.144Z,10.42
2018-03-24T18:04:04.717Z,10.44
2018-03-24T18:05:05.282Z,10.57
2018-03-24T18:06:05.853Z,10.40
2018-03-24T18:07:06.424Z,10.38
2018-03-24T18:08:07.011Z,10.41
2018-03-24T18:09:07.587Z,10.56
2018-03-24T18:10:08.215Z,10.51
2018-03-24T18:11:08.730Z,10.49
2018-03-24T18:12:09.348Z,10.41
2018-03-24T18:13:09.875Z,10.26
2018-03-24T18:14:10.448Z,10.19
2018-03-24T18:15:11.029Z,10.16
2018-03-24T18:16:11.614Z,10.22
2018-03-24T18:17:12.185Z,10.28
2018-03-24T18:18:12.768Z,10.37
2018-03-24T18:19:13.338Z,10.17
2018-03-24T18:20:13.908Z,10.19
2018-03-24T18:21:14.520Z,10.28
2018-03-24T18:22:15.092Z,10.22
2018-03-24T18:23:15.664Z,10.35
2018-03-24T18:24:16.234Z,10.23
2018-03-24T18:25:16.824Z,10.25
2018-03-24T18:26:17.456Z,10.17
2018-03-24T18:27:18.027Z,10.23
2018-03-24T18:28:18.597Z,10.23
2018-03-24T18:29:19.170Z,10.12
2018-03-24T18:30:19.741Z,10.01
2018-03-24T18:31:20.312Z,9.95
2018-03-24T18:32:20.884Z,10.16
2018-03-24T18:33:21.456Z,10.17
2018-03-24T18:34:22.028Z,10.13
2018-03-24T18:35:22.599Z,10.19
2018-03-24T18:36:23.172Z,10.09
2018-03-24T18:37:23.742Z,10.19
2018-03-24T18:38:24.311Z,9.94
2018-03-24T18:39:24.880Z,9.77
2018-03-24T18:40:25.450Z,9.69
2018-03-24T18:41:26.034Z,9.92
2018-03-24T18:42:26.589Z,9.89
2018-03-24T18:43:27.162Z,9.80
2018-03-24T18:44:27.732Z,9.74
2018-03-24T18:45:28.301Z,9.76
2018-03-24T18:46:28.877Z,9.86
2018-03-24T18:47:29.442Z,9.69
2018-03-24T18:48:30.019Z,9.77
2018-03-24T18:49:30.588Z,9.83
2018-03-24T18:50:31.160Z,9.73
2018-03-24T18:51:31.740Z,9.74
2018-03-24T18:52:32.310Z,9.51
2018-03-24T18:53:32.879Z,9.77
2018-03-24T18:54:33.462Z,9.74
2018-03-24T18:55:34.030Z,9.55
2018-03-24T18:56:34.602Z,9.58
2018-03-24T18:57:35.187Z,9.61
2018-03-24T18:58:35.757Z,9.55
2018-03-24T18:59:36.329Z,9.39
2018-03-24T19:00:36.900Z,9.36
2018-03-24T19:01:37.468Z,9.26
2018-03-24T19:02:38.038Z,9.43
2018-03-24T19:03:38.610Z,9.36
2018-03-24T19:04:39.178Z,9.26
2018-03-24T19:05:39.754Z,9.18
2018-03-24T19:06:40.319Z,9.11
2018-03-24T19:07:40.889Z,9.06
2018-03-24T19:08:41.460Z,9.13
2018-03-24T19:09:42.028Z,9.11
2018-03-24T19:10:42.598Z,8.78
2018-03-24T19:11:43.168Z,8.61
2018-03-24T19:12:43.737Z,8.58
2018-03-24T19:13:44.307Z,8.53
2018-03-24T19:14:44.877Z,8.63
2018-03-24T19:15:45.460Z,8.58
2018-03-24T19:16:46.032Z,8.76
2018-03-24T19:17:46.601Z,8.76
2018-03-24T19:18:47.173Z,8.76
2018-03-24T19:19:47.743Z,8.67
2018-03-24T19:20:48.311Z,8.61
2018-03-24T19:21:48.880Z,8.56
2018-03-24T19:22:49.449Z,8.58
2018-03-24T19:23:50.019Z,8.48
2018-03-24T19:24:50.589Z,8.49
2018-03-24T19:25:51.159Z,8.27
2018-03-24T19:26:51.728Z,8.23
2018-03-24T19:27:52.296Z,8.13
2018-03-24T19:28:52.878Z,8.18
2018-03-24T19:29:53.470Z,8.15
2018-03-24T19:30:54.048Z,8.05
2018-03-24T19:31:54.611Z,8.05
2018-03-24T19:32:55.183Z,7.98
2018-03-24T19:33:55.753Z,7.90
2018-03-24T19:34:56.321Z,7.83
2018-03-24T19:35:56.946Z,7.72
2018-03-24T19:36:57.471Z,7.51
2018-03-24T19:37:58.041Z,7.61
2018-03-24T19:38:58.621Z,7.70
2018-03-24T19:39:59.190Z,7.54
2018-03-24T19:40:59.771Z,7.72
2018-03-24T19:42:00.341Z,7.70
2018-03-24T19:43:00.919Z,7.72
2018-03-24T19:44:01.487Z,7.73
2018-03-24T19:45:02.058Z,7.70
2018-03-24T19:46:02.624Z,7.70
2018-03-24T19:47:03.193Z,7.63
2018-03-24T19:48:03.765Z,7.61
2018-03-24T19:49:04.333Z,7.58
2018-03-24T19:50:04.944Z,7.50
2018-03-24T19:51:05.514Z,7.54
2018-03-24T19:52:06.084Z,7.42
2018-03-24T19:53:06.653Z,7.31
2018-03-24T19:54:07.223Z,7.48
2018-03-24T19:55:07.793Z,7.32
2018-03-24T19:56:08.363Z,7.51
2018-03-24T19:57:08.941Z,7.32
2018-03-24T19:58:09.511Z,7.18
2018-03-24T19:59:10.082Z,7.15
2018-03-24T20:00:10.650Z,7.11
2018-03-24T20:01:11.220Z,6.99
2018-03-24T20:02:11.788Z,6.95
2018-03-24T20:03:12.366Z,7.05
2018-03-24T20:04:12.935Z,7.07
2018-03-24T20:05:13.503Z,7.02
2018-03-24T20:06:14.072Z,6.77
2018-03-24T20:07:14.638Z,7.02
2018-03-24T20:08:15.205Z,6.89
2018-03-24T20:09:15.778Z,6.85
2018-03-24T20:10:16.340Z,6.87
2018-03-24T20:11:16.908Z,6.72
2018-03-24T20:12:17.487Z,6.56
2018-03-24T20:13:18.057Z,6.41
2018-03-24T20:14:18.626Z,6.38
2018-03-24T20:15:19.194Z,6.54
2018-03-24T20:16:19.782Z,6.69
2018-03-24T20:17:20.332Z,6.69
2018-03-24T20:18:20.900Z,6.59
2018-03-24T20:19:21.470Z,6.60
2018-03-24T20:20:22.047Z,6.56
2018-03-24T20:21:22.617Z,6.59
2018-03-24T20:22:23.186Z,6.62
2018-03-24T20:23:23.755Z,6.60
2018-03-24T20:24:24.329Z,6.45
2018-03-24T20:25:24.894Z,6.33
2018-03-24T20:26:25.461Z,6.44
2018-03-24T20:27:26.040Z,6.39
2018-03-24T20:28:26.619Z,6.11
2018-03-24T20:29:27.190Z,6.16
2018-03-24T20:30:27.756Z,6.27
2018-03-24T20:31:28.324Z,6.33
2018-03-24T20:32:28.890Z,6.17
2018-03-24T20:33:29.458Z,6.05
2018-03-24T20:34:30.026Z,6.02
2018-03-24T20:35:30.593Z,5.97
2018-03-24T20:36:31.160Z,5.93
2018-03-24T20:37:31.727Z,5.94
2018-03-24T20:38:32.295Z,6.01
2018-03-24T20:39:32.862Z,5.89
2018-03-24T20:40:33.430Z,5.87
2018-03-24T20:41:34.007Z,5.83
2018-03-24T20:42:34.576Z,5.89
2018-03-24T20:43:35.153Z,5.93
2018-03-24T20:44:35.722Z,5.99
2018-03-24T20:45:36.287Z,5.91
2018-03-24T20:46:36.855Z,5.76
2018-03-24T20:47:37.422Z,5.51
2018-03-24T20:48:37.989Z,5.47
2018-03-24T20:49:38.556Z,5.64
2018-03-24T20:50:39.123Z,5.71
2018-03-24T20:51:39.690Z,5.72
2018-03-24T20:52:40.261Z,5.62
2018-03-24T20:53:40.836Z,5.50
2018-03-24T20:54:41.406Z,5.56
2018-03-24T20:55:41.972Z,5.51
2018-03-24T20:56:42.541Z,5.64
2018-03-24T20:57:43.108Z,5.50
2018-03-24T20:58:43.675Z,5.51
2018-03-24T20:59:44.243Z,5.59
2018-03-24T21:00:44.811Z,5.51
2018-03-24T21:01:45.378Z,5.43
2018-03-24T21:02:45.944Z,5.21
2018-03-24T21:03:46.511Z,5.39
2018-03-24T21:04:47.089Z,5.38
2018-03-24T21:05:47.657Z,5.30
2018-03-24T21:06:48.225Z,5.08
2018-03-24T21:07:48.808Z,5.17
2018-03-24T21:08:49.359Z,5.25
2018-03-24T21:09:49.929Z,5.28
2018-03-24T21:10:50.496Z,5.18
2018-03-24T21:11:51.064Z,5.11
2018-03-24T21:12:51.630Z,5.30
2018-03-24T21:13:52.197Z,5.21
2018-03-24T21:14:52.764Z,5.43
2018-03-24T21:15:53.331Z,5.43
2018-03-24T21:16:53.899Z,5.46
2018-03-24T21:17:54.474Z,5.36
2018-03-24T21:18:55.043Z,5.53
2018-03-24T21:19:55.610Z,5.50
2018-03-24T21:20:56.179Z,5.48
2018-03-24T21:21:56.746Z,5.50
2018-03-24T21:22:57.313Z,5.33
2018-03-24T21:23:57.880Z,5.18
2018-03-24T21:24:58.450Z,4.93
2018-03-24T21:25:59.014Z,4.86
2018-03-24T21:26:59.582Z,4.84
2018-03-24T21:28:00.150Z,5.02
2018-03-24T21:29:00.718Z,5.14
2018-03-24T21:30:01.285Z,5.04
2018-03-24T21:31:01.850Z,4.99
2018-03-24T21:32:02.449Z,5.00
2018-03-24T21:33:02.997Z,5.05
2018-03-24T21:34:03.567Z,4.93
2018-03-24T21:35:04.147Z,4.96
2018-03-24T21:36:04.714Z,4.86
2018-03-24T21:37:05.283Z,5.28
2018-03-24T21:38:05.849Z,5.17
2018-03-24T21:39:06.419Z,5.47
2018-03-24T21:40:06.994Z,5.30
2018-03-24T21:41:07.560Z,5.18
2018-03-24T21:42:08.126Z,5.23
2018-03-24T21:43:08.699Z,4.82
2018-03-24T21:44:09.259Z,5.39
2018-03-24T21:45:09.825Z,5.64
2018-03-24T21:46:10.391Z,5.02